Time;durP1;ratioP1;P1;durP2;ratioP2;P2;SDS_P1;SDS_P2;PMS_P1;PMS_P2;Temp;Humidity;BMP_temperature;BMP_pressure;BME280_temperature;BME280_humidity;BME280_pressure;Samples;Min_cycle;Max_cycle;Signal;HPM_P1;HPM_P2
2021/05/15 00:02:02;;;;;;;18.43;11.87;;;;;;;;;;5056817;28;20207;-70
2021/05/15 00:04:27;;;;;;;18.67;12.57;;;;;;;;;;5062732;28;20636;-70
2021/05/15 00:06:52;;;;;;;18.87;12.13;;;;;;;;;;5059573;28;20176;-70
2021/05/15 00:09:17;;;;;;;18.23;12.27;;;;;;;;;;5057424;28;20196;-69
2021/05/15 00:11:43;;;;;;;29.50;15.23;;;;;;;;;;5066921;28;20237;-70
2021/05/15 00:14:08;;;;;;;20.83;13.80;;;;;;;;;;5061067;28;20238;-69
2021/05/15 00:16:33;;;;;;;21.03;13.07;;;;;;;;;;5063064;28;20295;-70
2021/05/15 00:18:59;;;;;;;22.37;14.50;;;;;;;;;;5064010;28;20223;-69
2021/05/15 00:21:24;;;;;;;20.67;14.10;;;;;;;;;;5066760;28;20196;-70
2021/05/15 00:23:49;;;;;;;23.13;14.27;;;;;;;;;;5059218;28;20173;-70
2021/05/15 00:26:15;;;;;;;20.13;14.23;;;;;;;;;;5060741;28;20218;-70
2021/05/15 00:28:41;;;;;;;22.07;14.07;;;;;;;;;;5063402;28;20177;-70
2021/05/15 00:31:06;;;;;;;20.07;13.87;;;;;;;;;;5063491;28;20221;-70
2021/05/15 00:33:31;;;;;;;20.87;13.93;;;;;;;;;;5063185;28;20608;-70
2021/05/15 00:35:56;;;;;;;23.63;15.40;;;;;;;;;;5059825;28;20186;-70
2021/05/15 00:38:22;;;;;;;23.63;14.93;;;;;;;;;;5064698;28;20185;-70
2021/05/15 00:40:47;;;;;;;20.27;13.50;;;;;;;;;;5059462;28;20195;-70
2021/05/15 00:43:12;;;;;;;19.17;13.73;;;;;;;;;;5066063;28;20215;-70
2021/05/15 00:45:38;;;;;;;21.90;14.33;;;;;;;;;;5068703;28;20161;-71
2021/05/15 00:48:03;;;;;;;17.40;13.43;;;;;;;;;;5064063;28;20173;-70
2021/05/15 00:50:29;;;;;;;18.57;14.47;;;;;;;;;;5060813;28;20169;-70
2021/05/15 00:52:55;;;;;;;18.87;13.00;;;;;;;;;;5063760;28;20192;-69
2021/05/15 00:55:20;;;;;;;27.00;15.27;;;;;;;;;;5068972;28;20177;-70
2021/05/15 00:57:46;;;;;;;22.20;14.80;;;;;;;;;;5062588;28;20176;-70
2021/05/15 01:00:13;;;;;;;23.10;14.80;;;;;;;;;;5060188;28;20185;-69
2021/05/15 01:02:38;;;;;;;22.43;14.57;;;;;;;;;;5068401;28;20200;-70
2021/05/15 01:05:04;;;;;;;21.60;14.23;;;;;;;;;;5063450;28;20189;-70
2021/05/15 01:07:30;;;;;;;22.13;15.03;;;;;;;;;;5061130;28;20188;-70
2021/05/15 01:09:55;;;;;;;19.43;13.00;;;;;;;;;;5063156;28;20181;-70
2021/05/15 01:12:20;;;;;;;22.03;14.83;;;;;;;;;;5067654;28;20196;-69
2021/05/15 01:14:45;;;;;;;19.97;14.07;;;;;;;;;;5067002;28;20231;-71
2021/05/15 01:17:11;;;;;;;21.33;14.70;;;;;;;;;;5062429;28;20178;-70
2021/05/15 01:19:37;;;;;;;20.10;13.93;;;;;;;;;;5069886;28;20631;-70
2021/05/15 01:22:06;;;;;;;21.93;14.60;;;;;;;;;;5070799;28;20269;-70
2021/05/15 01:24:31;;;;;;;21.70;13.97;;;;;;;;;;5067422;28;20177;-70
2021/05/15 01:26:56;;;;;;;25.37;15.23;;;;;;;;;;5069903;28;20170;-70
2021/05/15 01:29:22;;;;;;;20.80;14.17;;;;;;;;;;5064617;28;20965;-70
2021/05/15 01:31:47;;;;;;;18.80;13.10;;;;;;;;;;5069156;28;20200;-70
2021/05/15 01:34:12;;;;;;;25.37;14.00;;;;;;;;;;5068587;28;20185;-70
2021/05/15 01:36:42;;;;;;;23.23;15.40;;;;;;;;;;5065343;28;20274;-70
2021/05/15 01:39:11;;;;;;;20.10;14.90;;;;;;;;;;5069106;28;20621;-71
2021/05/15 01:41:36;;;;;;;22.63;13.83;;;;;;;;;;5063105;28;20770;-70
2021/05/15 01:44:02;;;;;;;23.67;13.97;;;;;;;;;;5068277;28;20197;-70
2021/05/15 01:46:27;;;;;;;23.80;13.57;;;;;;;;;;5063085;28;20635;-70
2021/05/15 01:48:53;;;;;;;22.73;14.37;;;;;;;;;;5069235;28;20643;-69
2021/05/15 01:51:18;;;;;;;21.63;14.33;;;;;;;;;;5062631;28;20184;-71
2021/05/15 01:53:48;;;;;;;22.67;14.90;;;;;;;;;;5068071;28;20651;-71
2021/05/15 01:56:14;;;;;;;20.77;14.27;;;;;;;;;;5074953;28;20173;-71
2021/05/15 01:58:40;;;;;;;22.03;14.60;;;;;;;;;;5059534;28;20199;-71
2021/05/15 02:01:06;;;;;;;20.37;13.60;;;;;;;;;;5068023;28;20213;-70
2021/05/15 02:03:31;;;;;;;24.33;14.20;;;;;;;;;;5064827;28;20205;-71
2021/05/15 02:05:56;;;;;;;21.13;15.10;;;;;;;;;;5060985;28;20173;-70
2021/05/15 02:08:22;;;;;;;20.93;13.97;;;;;;;;;;5057646;28;20219;-69
2021/05/15 02:10:48;;;;;;;16.53;11.73;;;;;;;;;;5065456;28;20192;-70
2021/05/15 02:13:13;;;;;;;18.00;12.40;;;;;;;;;;5059675;28;20307;-70
2021/05/15 02:15:38;;;;;;;18.03;12.80;;;;;;;;;;5067248;28;20232;-69
2021/05/15 02:18:04;;;;;;;19.13;11.77;;;;;;;;;;5060245;28;20193;-71
2021/05/15 02:20:29;;;;;;;19.23;13.27;;;;;;;;;;5066716;28;20334;-70
2021/05/15 02:22:56;;;;;;;21.20;12.40;;;;;;;;;;5066098;28;20220;-69
2021/05/15 02:25:21;;;;;;;17.37;12.87;;;;;;;;;;5070280;28;20543;-70
2021/05/15 02:27:47;;;;;;;18.63;12.30;;;;;;;;;;5059446;28;20178;-70
2021/05/15 02:30:12;;;;;;;19.00;11.97;;;;;;;;;;5064362;28;20170;-70
2021/05/15 02:32:37;;;;;;;17.83;12.13;;;;;;;;;;5066778;28;20931;-70
2021/05/15 02:35:03;;;;;;;18.37;12.23;;;;;;;;;;5068304;28;20183;-70
2021/05/15 02:37:28;;;;;;;14.53;11.63;;;;;;;;;;5061890;28;20185;-70
2021/05/15 02:39:53;;;;;;;17.63;12.33;;;;;;;;;;5067855;28;20673;-70
2021/05/15 02:42:19;;;;;;;19.83;12.70;;;;;;;;;;5065939;28;20211;-71
2021/05/15 02:44:44;;;;;;;18.07;12.17;;;;;;;;;;5066591;28;20169;-70
2021/05/15 02:47:09;;;;;;;21.03;12.83;;;;;;;;;;5068469;28;20178;-70
2021/05/15 02:49:34;;;;;;;15.67;12.23;;;;;;;;;;5068964;28;20169;-70
2021/05/15 02:52:00;;;;;;;20.87;13.13;;;;;;;;;;5060019;28;20224;-70
2021/05/15 02:54:25;;;;;;;21.23;13.50;;;;;;;;;;5063497;28;20209;-69
2021/05/15 02:56:50;;;;;;;16.40;11.73;;;;;;;;;;5060086;28;20747;-70
2021/05/15 02:59:15;;;;;;;19.67;13.43;;;;;;;;;;5061983;28;20174;-68
2021/05/15 03:01:40;;;;;;;19.07;13.27;;;;;;;;;;5058956;28;20209;-70
2021/05/15 03:04:05;;;;;;;16.40;11.80;;;;;;;;;;5065678;28;20634;-69
2021/05/15 03:06:31;;;;;;;17.97;11.70;;;;;;;;;;5062512;28;20189;-70
2021/05/15 03:08:56;;;;;;;20.53;13.73;;;;;;;;;;5057528;28;20173;-70
2021/05/15 03:11:21;;;;;;;18.63;12.90;;;;;;;;;;5065432;28;20272;-69
2021/05/15 03:13:46;;;;;;;21.10;13.07;;;;;;;;;;5061650;28;20173;-69
2021/05/15 03:16:11;;;;;;;20.30;11.83;;;;;;;;;;5061138;28;20181;-71
2021/05/15 03:18:37;;;;;;;19.03;12.23;;;;;;;;;;5062218;28;20627;-69
2021/05/15 03:21:02;;;;;;;20.10;12.97;;;;;;;;;;5066971;28;20224;-71
2021/05/15 03:23:27;;;;;;;20.10;12.40;;;;;;;;;;5064067;28;20213;-68
2021/05/15 03:25:52;;;;;;;18.53;12.03;;;;;;;;;;5068874;28;20219;-70
2021/05/15 03:28:18;;;;;;;19.07;12.43;;;;;;;;;;5059008;28;20231;-70
2021/05/15 03:30:43;;;;;;;18.93;12.80;;;;;;;;;;5061767;28;20169;-70
2021/05/15 03:33:08;;;;;;;18.70;12.43;;;;;;;;;;5057289;28;20742;-69
2021/05/15 03:35:33;;;;;;;16.37;11.93;;;;;;;;;;5067915;28;20168;-70
2021/05/15 03:37:59;;;;;;;19.03;12.67;;;;;;;;;;5063610;28;20213;-70
2021/05/15 03:40:24;;;;;;;17.67;12.33;;;;;;;;;;5054019;28;20205;-71
2021/05/15 03:42:53;;;;;;;19.97;14.27;;;;;;;;;;5062206;28;20209;-71
2021/05/15 03:45:18;;;;;;;19.20;12.70;;;;;;;;;;5066121;28;20181;-70
2021/05/15 03:47:44;;;;;;;19.93;13.27;;;;;;;;;;5063969;28;20230;-70
2021/05/15 03:50:09;;;;;;;21.03;13.80;;;;;;;;;;5064333;28;20250;-70
2021/05/15 03:52:34;;;;;;;20.17;12.60;;;;;;;;;;5059270;28;20296;-71
2021/05/15 03:55:00;;;;;;;17.53;13.20;;;;;;;;;;5063498;28;20319;-70
2021/05/15 03:57:25;;;;;;;20.60;13.80;;;;;;;;;;5060110;28;20181;-71
2021/05/15 03:59:50;;;;;;;20.23;15.23;;;;;;;;;;5058810;28;20200;-71
2021/05/15 04:02:21;;;;;;;18.97;14.13;;;;;;;;;;5056288;28;20205;-70
2021/05/15 04:04:46;;;;;;;21.13;15.83;;;;;;;;;;5059438;28;20170;-69
2021/05/15 04:07:11;;;;;;;20.40;15.53;;;;;;;;;;5066228;28;20260;-69
2021/05/15 04:09:36;;;;;;;23.10;14.83;;;;;;;;;;5056446;28;20192;-70
2021/05/15 04:12:01;;;;;;;24.53;15.80;;;;;;;;;;5059598;28;20212;-71
2021/05/15 04:14:35;;;;;;;21.87;14.70;;;;;;;;;;5061549;28;20272;-70
2021/05/15 04:17:13;;;;;;;19.93;13.77;;;;;;;;;;5058747;28;20174;-70
2021/05/15 04:19:38;;;;;;;21.83;15.40;;;;;;;;;;5062662;28;20604;-71
2021/05/15 04:22:03;;;;;;;22.13;15.37;;;;;;;;;;5069647;28;20204;-70
2021/05/15 04:24:29;;;;;;;21.27;14.57;;;;;;;;;;5062048;28;20174;-71
2021/05/15 04:26:56;;;;;;;19.70;14.50;;;;;;;;;;5067292;28;20169;-70
2021/05/15 04:29:22;;;;;;;20.57;15.50;;;;;;;;;;5053592;28;20173;-70
2021/05/15 04:31:47;;;;;;;22.63;14.33;;;;;;;;;;5060389;28;20201;-71
2021/05/15 04:34:12;;;;;;;18.93;14.07;;;;;;;;;;5060718;28;20212;-70
2021/05/15 04:36:38;;;;;;;24.47;16.17;;;;;;;;;;5065163;28;20680;-71
2021/05/15 04:39:03;;;;;;;23.00;14.20;;;;;;;;;;5058463;28;20181;-70
2021/05/15 04:41:28;;;;;;;21.23;15.80;;;;;;;;;;5067166;28;20197;-70
2021/05/15 04:43:54;;;;;;;21.63;14.73;;;;;;;;;;5057210;28;20201;-70
2021/05/15 04:46:19;;;;;;;24.77;17.83;;;;;;;;;;5061277;28;20181;-70
2021/05/15 04:48:44;;;;;;;23.03;16.03;;;;;;;;;;5068356;28;20284;-71
2021/05/15 04:51:10;;;;;;;22.30;16.43;;;;;;;;;;5059574;28;20188;-70
2021/05/15 04:53:35;;;;;;;23.00;15.57;;;;;;;;;;5067865;28;20709;-70
2021/05/15 04:56:00;;;;;;;23.13;17.33;;;;;;;;;;5060919;28;20178;-71
2021/05/15 04:58:26;;;;;;;23.60;17.23;;;;;;;;;;5064989;28;20230;-70
2021/05/15 05:00:51;;;;;;;25.40;15.83;;;;;;;;;;5060880;28;20202;-70
2021/05/15 05:03:16;;;;;;;22.63;16.17;;;;;;;;;;5061241;28;20197;-71
2021/05/15 05:05:42;;;;;;;22.00;16.83;;;;;;;;;;5060364;28;20181;-71
2021/05/15 05:08:07;;;;;;;29.73;16.47;;;;;;;;;;5059210;28;20182;-70
2021/05/15 05:10:32;;;;;;;20.70;15.07;;;;;;;;;;5065905;28;20188;-70
2021/05/15 05:12:57;;;;;;;25.70;17.37;;;;;;;;;;5059884;28;20200;-70
2021/05/15 05:15:23;;;;;;;22.60;16.07;;;;;;;;;;5066723;28;20185;-69
2021/05/15 05:17:48;;;;;;;23.63;15.57;;;;;;;;;;5060939;28;20180;-70
2021/05/15 05:20:14;;;;;;;20.63;16.17;;;;;;;;;;5061776;28;20283;-70
2021/05/15 05:22:39;;;;;;;21.30;16.50;;;;;;;;;;5065150;28;20209;-72
2021/05/15 05:25:07;;;;;;;22.07;15.97;;;;;;;;;;5069659;28;20708;-70
2021/05/15 05:27:32;;;;;;;23.43;16.53;;;;;;;;;;5069131;28;20216;-70
2021/05/15 05:29:57;;;;;;;23.10;14.87;;;;;;;;;;5057454;28;20655;-72
2021/05/15 05:32:22;;;;;;;22.73;15.43;;;;;;;;;;5069945;28;20693;-71
2021/05/15 05:34:47;;;;;;;22.93;16.27;;;;;;;;;;5072587;28;20187;-71
2021/05/15 05:37:13;;;;;;;22.93;15.47;;;;;;;;;;5068852;28;20219;-70
2021/05/15 05:39:38;;;;;;;23.30;16.13;;;;;;;;;;5065584;28;20173;-71
2021/05/15 05:42:03;;;;;;;20.93;16.53;;;;;;;;;;5064516;28;20239;-70
2021/05/15 05:44:29;;;;;;;30.53;17.50;;;;;;;;;;5066400;28;20204;-71
2021/05/15 05:46:54;;;;;;;23.10;16.90;;;;;;;;;;5072413;28;20177;-70
2021/05/15 05:49:20;;;;;;;26.40;16.77;;;;;;;;;;5070706;28;20220;-70
2021/05/15 05:51:45;;;;;;;21.53;15.60;;;;;;;;;;5067320;28;20281;-69
2021/05/15 05:54:11;;;;;;;20.90;15.87;;;;;;;;;;5065211;28;20537;-69
2021/05/15 05:56:36;;;;;;;22.97;15.77;;;;;;;;;;5062095;28;20186;-70
2021/05/15 05:59:02;;;;;;;22.27;16.20;;;;;;;;;;5062737;28;20651;-71
2021/05/15 06:01:27;;;;;;;24.70;17.30;;;;;;;;;;5059559;28;20200;-70
2021/05/15 06:03:52;;;;;;;22.37;17.30;;;;;;;;;;5061973;28;20238;-69
2021/05/15 06:06:17;;;;;;;25.83;17.03;;;;;;;;;;5066546;28;20878;-71
2021/05/15 06:08:42;;;;;;;23.50;17.23;;;;;;;;;;5064806;28;20177;-70
2021/05/15 06:11:08;;;;;;;21.97;16.73;;;;;;;;;;5064850;28;20184;-72
2021/05/15 06:13:33;;;;;;;24.03;17.17;;;;;;;;;;5060666;28;20581;-70
2021/05/15 06:15:58;;;;;;;28.30;17.13;;;;;;;;;;5065302;28;20269;-69
2021/05/15 06:18:23;;;;;;;20.70;16.07;;;;;;;;;;5060322;28;20173;-69
2021/05/15 06:20:49;;;;;;;25.27;17.10;;;;;;;;;;5065262;28;20175;-72
2021/05/15 06:23:14;;;;;;;27.13;17.77;;;;;;;;;;5055322;28;20220;-69
2021/05/15 06:25:40;;;;;;;22.60;16.17;;;;;;;;;;5068475;28;20180;-69
2021/05/15 06:28:05;;;;;;;26.13;18.30;;;;;;;;;;5067271;28;20181;-70
2021/05/15 06:30:30;;;;;;;23.60;17.77;;;;;;;;;;5059219;28;20231;-69
2021/05/15 06:32:55;;;;;;;25.73;18.93;;;;;;;;;;5061801;28;20297;-69
2021/05/15 06:35:21;;;;;;;27.57;20.00;;;;;;;;;;5064582;28;20230;-68
2021/05/15 06:37:46;;;;;;;26.67;18.33;;;;;;;;;;5060570;28;20188;-69
2021/05/15 06:40:11;;;;;;;26.53;19.83;;;;;;;;;;5063937;28;20551;-70
2021/05/15 06:42:37;;;;;;;28.20;20.43;;;;;;;;;;5059640;28;20204;-69
2021/05/15 06:45:03;;;;;;;25.87;17.93;;;;;;;;;;5062768;28;20258;-70
2021/05/15 06:47:28;;;;;;;26.67;19.10;;;;;;;;;;5059332;28;20198;-69
2021/05/15 06:49:54;;;;;;;21.93;17.90;;;;;;;;;;5062388;28;20619;-70
2021/05/15 06:52:19;;;;;;;23.93;17.27;;;;;;;;;;5057931;28;20670;-70
2021/05/15 06:54:44;;;;;;;23.73;16.97;;;;;;;;;;5065889;28;20210;-69
2021/05/15 06:57:09;;;;;;;21.17;16.63;;;;;;;;;;5057692;28;20296;-70
2021/05/15 06:59:34;;;;;;;20.50;15.47;;;;;;;;;;5064636;28;20184;-70
2021/05/15 07:02:00;;;;;;;22.07;15.53;;;;;;;;;;5060530;28;20232;-70
2021/05/15 07:04:25;;;;;;;20.33;15.17;;;;;;;;;;5058210;28;20639;-70
2021/05/15 07:06:50;;;;;;;20.77;15.53;;;;;;;;;;5062930;28;20185;-70
2021/05/15 07:09:15;;;;;;;17.90;14.87;;;;;;;;;;5054582;28;20586;-70
2021/05/15 07:11:41;;;;;;;21.13;15.10;;;;;;;;;;5065386;28;20300;-70
2021/05/15 07:14:06;;;;;;;20.60;14.53;;;;;;;;;;5060380;28;20182;-70
2021/05/15 07:16:31;;;;;;;20.07;14.63;;;;;;;;;;5063130;28;20197;-70
2021/05/15 07:18:56;;;;;;;19.17;15.53;;;;;;;;;;5064751;28;20177;-70
2021/05/15 07:21:21;;;;;;;19.73;13.80;;;;;;;;;;5057864;28;20219;-70
2021/05/15 07:23:47;;;;;;;15.50;12.13;;;;;;;;;;5063242;28;20256;-70
2021/05/15 07:26:12;;;;;;;16.90;13.15;;;;;;;;;;5062860;28;20181;-71
2021/05/15 07:28:37;;;;;;;16.73;13.60;;;;;;;;;;5056675;28;20647;-71
2021/05/15 07:31:03;;;;;;;17.10;13.83;;;;;;;;;;5063514;28;20181;-70
2021/05/15 07:33:28;;;;;;;18.67;13.50;;;;;;;;;;5062365;28;20189;-69
2021/05/15 07:35:53;;;;;;;19.38;14.27;;;;;;;;;;5061442;28;20532;-71
2021/05/15 07:38:21;;;;;;;20.52;14.63;;;;;;;;;;5061566;28;20193;-71
2021/05/15 07:40:46;;;;;;;20.13;14.38;;;;;;;;;;5057285;28;20177;-71
2021/05/15 07:43:11;;;;;;;22.77;15.52;;;;;;;;;;5060913;28;20212;-70
2021/05/15 07:45:36;;;;;;;18.02;15.35;;;;;;;;;;5056595;28;20212;-70
2021/05/15 07:48:02;;;;;;;21.80;14.45;;;;;;;;;;5062289;28;20174;-71
2021/05/15 07:50:28;;;;;;;19.08;14.98;;;;;;;;;;5059156;28;20173;-70
2021/05/15 07:52:53;;;;;;;18.88;15.20;;;;;;;;;;5065998;28;20281;-70
2021/05/15 07:55:18;;;;;;;20.65;15.48;;;;;;;;;;5058160;28;20255;-70
2021/05/15 07:57:43;;;;;;;21.92;16.15;;;;;;;;;;5059904;28;20174;-70
2021/05/15 08:00:09;;;;;;;21.83;16.67;;;;;;;;;;5065702;28;20319;-70
2021/05/15 08:02:35;;;;;;;21.83;15.70;;;;;;;;;;5056409;28;20200;-69
2021/05/15 08:05:00;;;;;;;23.80;16.92;;;;;;;;;;5060009;28;20248;-71
2021/05/15 08:07:25;;;;;;;20.73;16.10;;;;;;;;;;5056697;28;20596;-71
2021/05/15 08:09:50;;;;;;;25.10;16.58;;;;;;;;;;5060575;28;20177;-69
2021/05/15 08:12:16;;;;;;;26.13;16.73;;;;;;;;;;5060586;28;20208;-69
2021/05/15 08:14:41;;;;;;;24.67;19.10;;;;;;;;;;5058569;28;20181;-68
2021/05/15 08:17:06;;;;;;;23.73;18.60;;;;;;;;;;5062583;28;20759;-70
2021/05/15 08:19:31;;;;;;;22.48;17.48;;;;;;;;;;5055781;28;20173;-70
2021/05/15 08:21:57;;;;;;;26.50;18.23;;;;;;;;;;5062600;28;20197;-70
2021/05/15 08:24:22;;;;;;;22.10;17.63;;;;;;;;;;5059101;28;20216;-69
2021/05/15 08:26:49;;;;;;;26.15;18.02;;;;;;;;;;5064408;28;20553;-70
2021/05/15 08:29:15;;;;;;;21.73;17.17;;;;;;;;;;5055485;28;20257;-70
2021/05/15 08:31:40;;;;;;;20.65;15.80;;;;;;;;;;5061430;28;20197;-69
2021/05/15 08:34:05;;;;;;;18.88;14.50;;;;;;;;;;5060400;28;20647;-71
2021/05/15 08:36:30;;;;;;;18.35;14.23;;;;;;;;;;5058688;28;20185;-68
2021/05/15 08:38:57;;;;;;;18.08;13.85;;;;;;;;;;5053237;28;20616;-71
2021/05/15 08:41:22;;;;;;;16.73;13.05;;;;;;;;;;5060294;28;20188;-71
2021/05/15 08:43:48;;;;;;;19.13;12.52;;;;;;;;;;5059857;28;20178;-69
2021/05/15 08:46:13;;;;;;;16.48;12.52;;;;;;;;;;5063824;28;20184;-70
2021/05/15 08:48:39;;;;;;;13.90;12.05;;;;;;;;;;5056125;28;20553;-70
2021/05/15 08:51:05;;;;;;;14.15;11.23;;;;;;;;;;5062618;28;20218;-70
2021/05/15 08:53:30;;;;;;;15.82;12.32;;;;;;;;;;5056547;28;20190;-69
2021/05/15 08:55:55;;;;;;;13.15;11.60;;;;;;;;;;5056953;28;20173;-70
2021/05/15 08:58:21;;;;;;;13.32;10.93;;;;;;;;;;5060455;28;20176;-70
2021/05/15 09:00:46;;;;;;;12.88;11.50;;;;;;;;;;5063424;28;20634;-71
2021/05/15 09:03:13;;;;;;;13.57;11.88;;;;;;;;;;5058767;28;20209;-70
2021/05/15 09:05:40;;;;;;;15.05;11.88;;;;;;;;;;5061870;28;20185;-71
2021/05/15 09:08:09;;;;;;;13.90;10.98;;;;;;;;;;5066259;28;20216;-70
2021/05/15 09:10:34;;;;;;;17.60;11.95;;;;;;;;;;5062827;28;20165;-70
2021/05/15 09:13:11;;;;;;;14.85;11.13;;;;;;;;;;5058800;28;20639;-71
2021/05/15 09:15:37;;;;;;;13.38;11.15;;;;;;;;;;5063295;28;20172;-70
2021/05/15 09:18:02;;;;;;;13.80;11.55;;;;;;;;;;5058406;28;20180;-69
2021/05/15 09:20:29;;;;;;;12.30;10.82;;;;;;;;;;5068431;28;20246;-69
2021/05/15 09:22:54;;;;;;;13.65;12.15;;;;;;;;;;5063875;28;20209;-69
2021/05/15 09:25:20;;;;;;;13.40;11.40;;;;;;;;;;5062030;28;20177;-69
2021/05/15 09:27:46;;;;;;;13.73;11.63;;;;;;;;;;5061141;28;20174;-71
2021/05/15 09:30:12;;;;;;;18.90;12.13;;;;;;;;;;5062019;28;20658;-71
2021/05/15 09:32:37;;;;;;;18.85;12.52;;;;;;;;;;5061122;28;20322;-70
2021/05/15 09:35:05;;;;;;;14.90;11.82;;;;;;;;;;5055408;28;20256;-70
2021/05/15 09:37:31;;;;;;;13.90;12.48;;;;;;;;;;5061215;28;20560;-71
2021/05/15 09:39:57;;;;;;;14.55;11.88;;;;;;;;;;5062416;28;20808;-71
2021/05/15 09:42:22;;;;;;;14.25;12.00;;;;;;;;;;5062308;28;20216;-70
2021/05/15 09:44:48;;;;;;;17.35;11.68;;;;;;;;;;5066386;28;20180;-69
2021/05/15 09:47:17;;;;;;;15.90;12.43;;;;;;;;;;5063692;28;20182;-70
2021/05/15 09:49:42;;;;;;;13.98;12.13;;;;;;;;;;5065494;28;20235;-71
2021/05/15 09:52:08;;;;;;;14.47;12.10;;;;;;;;;;5073388;28;20620;-72
2021/05/15 09:54:34;;;;;;;14.73;12.45;;;;;;;;;;5070717;28;20430;-70
2021/05/15 09:57:00;;;;;;;14.63;12.63;;;;;;;;;;5065531;28;20212;-70
2021/05/15 09:59:39;;;;;;;15.60;12.80;;;;;;;;;;5068236;28;20173;-71
2021/05/15 10:02:06;;;;;;;16.73;13.73;;;;;;;;;;5068764;28;20204;-71
2021/05/15 10:04:31;;;;;;;16.00;12.95;;;;;;;;;;5068475;28;20231;-71
2021/05/15 10:06:57;;;;;;;15.73;12.45;;;;;;;;;;5066782;28;20177;-71
2021/05/15 10:09:29;;;;;;;16.83;13.70;;;;;;;;;;5066568;28;20667;-71
2021/05/15 10:11:54;;;;;;;15.32;12.93;;;;;;;;;;5066033;28;20196;-71
2021/05/15 10:14:22;;;;;;;15.40;13.25;;;;;;;;;;5066044;28;20646;-70
2021/05/15 10:16:48;;;;;;;15.68;12.90;;;;;;;;;;5065352;28;20169;-70
2021/05/15 10:19:14;;;;;;;16.15;13.25;;;;;;;;;;5063867;28;20183;-73
2021/05/15 10:21:39;;;;;;;17.83;14.32;;;;;;;;;;5056119;28;20200;-71
2021/05/15 10:24:05;;;;;;;18.30;16.17;;;;;;;;;;5058704;28;20286;-70
2021/05/15 10:26:30;;;;;;;19.02;15.45;;;;;;;;;;5061147;28;20434;-71
2021/05/15 10:28:59;;;;;;;18.30;16.15;;;;;;;;;;5055175;28;20177;-70
2021/05/15 10:31:35;;;;;;;19.02;17.02;;;;;;;;;;5054514;28;20180;-71
2021/05/15 10:34:00;;;;;;;20.65;16.30;;;;;;;;;;5065568;28;20326;-71
2021/05/15 10:36:26;;;;;;;20.45;17.70;;;;;;;;;;5064738;28;20694;-71
2021/05/15 10:38:52;;;;;;;22.30;19.10;;;;;;;;;;5069570;28;20533;-68
2021/05/15 10:41:18;;;;;;;22.00;18.83;;;;;;;;;;5060963;28;22262;-69
2021/05/15 10:43:44;;;;;;;25.83;19.98;;;;;;;;;;5065332;28;20555;-69
2021/05/15 10:46:24;;;;;;;22.20;19.50;;;;;;;;;;5057304;28;20205;-69
2021/05/15 10:49:00;;;;;;;24.65;21.98;;;;;;;;;;5063538;28;20650;-71
2021/05/15 10:51:36;;;;;;;24.95;22.20;;;;;;;;;;5060501;28;20535;-71
2021/05/15 10:54:01;;;;;;;24.35;20.80;;;;;;;;;;5068866;28;20183;-71
2021/05/15 10:56:31;;;;;;;21.17;18.98;;;;;;;;;;5060553;28;20553;-71
2021/05/15 10:59:01;;;;;;;22.17;19.90;;;;;;;;;;5060146;28;20185;-71
2021/05/15 11:01:27;;;;;;;23.13;19.52;;;;;;;;;;5063245;28;20207;-70
2021/05/15 11:03:52;;;;;;;23.77;21.17;;;;;;;;;;5063577;28;20620;-69
2021/05/15 11:06:21;;;;;;;26.65;22.55;;;;;;;;;;5054449;28;20256;-70
2021/05/15 11:08:57;;;;;;;24.55;21.55;;;;;;;;;;5062412;28;20180;-70
2021/05/15 11:11:33;;;;;;;24.08;20.60;;;;;;;;;;5059897;28;20646;-70
2021/05/15 11:13:59;;;;;;;27.15;22.40;;;;;;;;;;5058838;28;20682;-71
2021/05/15 11:16:31;;;;;;;25.58;22.70;;;;;;;;;;5066553;28;20261;-68
2021/05/15 11:19:06;;;;;;;24.92;22.25;;;;;;;;;;5062602;28;20658;-70
2021/05/15 11:21:33;;;;;;;26.92;22.80;;;;;;;;;;5060162;28;20208;-69
2021/05/15 11:23:58;;;;;;;24.60;21.85;;;;;;;;;;5057917;28;20190;-68
2021/05/15 11:26:34;;;;;;;25.40;21.87;;;;;;;;;;5061737;28;20201;-70
2021/05/15 11:29:05;;;;;;;25.30;22.27;;;;;;;;;;5065193;28;20777;-69
2021/05/15 11:31:36;;;;;;;26.85;22.92;;;;;;;;;;5063325;28;20185;-69
2021/05/15 11:34:11;;;;;;;24.40;21.85;;;;;;;;;;5059316;28;20272;-70
2021/05/15 11:36:39;;;;;;;25.92;21.65;;;;;;;;;;5062328;28;20192;-71
2021/05/15 11:39:05;;;;;;;23.33;20.85;;;;;;;;;;5059615;28;20178;-70
2021/05/15 11:41:30;;;;;;;23.42;18.88;;;;;;;;;;5060268;28;20201;-70
2021/05/15 11:43:55;;;;;;;23.60;20.27;;;;;;;;;;5062518;28;20170;-70
2021/05/15 11:46:24;;;;;;;23.80;19.73;;;;;;;;;;5051681;28;20953;-71
2021/05/15 11:48:50;;;;;;;24.38;19.92;;;;;;;;;;5058882;28;20177;-69
2021/05/15 11:51:19;;;;;;;22.58;20.02;;;;;;;;;;5059436;28;20222;-70
2021/05/15 11:53:46;;;;;;;28.08;20.80;;;;;;;;;;5058163;28;20573;-70
2021/05/15 11:56:11;;;;;;;21.80;19.15;;;;;;;;;;5062324;28;20178;-69
2021/05/15 11:58:42;;;;;;;23.80;20.92;;;;;;;;;;5059372;28;20169;-72
2021/05/15 12:01:10;;;;;;;28.90;21.92;;;;;;;;;;5060085;28;20438;-69
2021/05/15 12:03:35;;;;;;;25.15;20.85;;;;;;;;;;5062234;28;20222;-72
2021/05/15 12:06:09;;;;;;;25.97;22.27;;;;;;;;;;5057587;28;20249;-72
2021/05/15 12:08:35;;;;;;;27.50;22.38;;;;;;;;;;5060884;28;20550;-70
2021/05/15 12:11:01;;;;;;;24.90;20.87;;;;;;;;;;5056704;28;20267;-71
2021/05/15 12:13:26;;;;;;;26.08;20.95;;;;;;;;;;5056763;28;20832;-72
2021/05/15 12:15:52;;;;;;;24.70;20.00;;;;;;;;;;5051887;28;20181;-69
2021/05/15 12:18:17;;;;;;;22.88;19.08;;;;;;;;;;5062440;28;20416;-70
2021/05/15 12:20:44;;;;;;;21.75;18.35;;;;;;;;;;5056765;28;20175;-70
2021/05/15 12:23:14;;;;;;;22.23;18.92;;;;;;;;;;5056832;28;20210;-70
2021/05/15 12:25:41;;;;;;;20.05;17.42;;;;;;;;;;5061121;28;20172;-71
2021/05/15 12:28:23;;;;;;;18.38;16.38;;;;;;;;;;5059118;28;20188;-69
2021/05/15 12:30:48;;;;;;;19.83;15.60;;;;;;;;;;5057901;28;20191;-70
2021/05/15 12:33:16;;;;;;;16.75;12.85;;;;;;;;;;5054082;28;20205;-70
2021/05/15 12:35:41;;;;;;;15.35;13.40;;;;;;;;;;5060695;28;20186;-69
2021/05/15 12:38:08;;;;;;;15.60;13.90;;;;;;;;;;5059853;28;20208;-70
2021/05/15 12:40:33;;;;;;;17.20;13.90;;;;;;;;;;5059396;28;20505;-70
2021/05/15 12:43:12;;;;;;;12.07;10.88;;;;;;;;;;5069251;28;20291;-70
2021/05/15 12:45:41;;;;;;;16.38;14.00;;;;;;;;;;5059106;28;20173;-70
2021/05/15 12:48:19;;;;;;;14.82;12.75;;;;;;;;;;5065913;28;20185;-69
2021/05/15 12:50:47;;;;;;;18.17;12.82;;;;;;;;;;5065889;28;20165;-70
2021/05/15 12:53:12;;;;;;;14.50;12.85;;;;;;;;;;5063982;28;20212;-69
2021/05/15 12:55:48;;;;;;;13.43;12.02;;;;;;;;;;5063712;28;20256;-70
2021/05/15 12:58:17;;;;;;;13.30;11.60;;;;;;;;;;5062145;28;20192;-70
2021/05/15 13:00:51;;;;;;;15.75;12.30;;;;;;;;;;5063095;28;20223;-71
2021/05/15 13:03:16;;;;;;;12.10;10.88;;;;;;;;;;5062767;28;20209;-70
2021/05/15 13:05:42;;;;;;;13.00;11.53;;;;;;;;;;5067400;28;20186;-70
2021/05/15 13:08:08;;;;;;;14.10;12.07;;;;;;;;;;5066089;28;20506;-69
2021/05/15 13:10:34;;;;;;;12.88;11.57;;;;;;;;;;5070841;28;20173;-70
2021/05/15 13:13:00;;;;;;;13.25;11.95;;;;;;;;;;5068462;28;20844;-70
2021/05/15 13:15:26;;;;;;;13.90;12.40;;;;;;;;;;5069951;28;20177;-70
2021/05/15 13:17:51;;;;;;;14.48;12.93;;;;;;;;;;5062910;28;20253;-70
2021/05/15 13:20:16;;;;;;;14.48;12.75;;;;;;;;;;5067297;28;20189;-70
2021/05/15 13:22:41;;;;;;;15.35;13.55;;;;;;;;;;5063335;28;20205;-70
2021/05/15 13:25:07;;;;;;;15.48;13.43;;;;;;;;;;5058777;28;20182;-71
2021/05/15 13:27:32;;;;;;;14.85;13.25;;;;;;;;;;5065694;28;20224;-71
2021/05/15 13:29:57;;;;;;;15.43;13.70;;;;;;;;;;5060863;28;20180;-70
2021/05/15 13:32:22;;;;;;;13.63;12.20;;;;;;;;;;5060291;28;20440;-71
2021/05/15 13:34:48;;;;;;;15.68;12.80;;;;;;;;;;5064736;28;20197;-70
2021/05/15 13:37:13;;;;;;;12.23;10.97;;;;;;;;;;5064431;28;20186;-70
2021/05/15 13:39:38;;;;;;;13.97;12.40;;;;;;;;;;5067028;28;21005;-70
2021/05/15 13:42:03;;;;;;;13.63;12.02;;;;;;;;;;5063042;28;20464;-69
2021/05/15 13:44:28;;;;;;;4.82;4.20;;;;;;;;;;5064128;28;20180;-70
2021/05/15 13:46:54;;;;;;;5.55;2.97;;;;;;;;;;5056461;28;20605;-70
2021/05/15 13:49:21;;;;;;;7.03;3.70;;;;;;;;;;5062943;28;20204;-71
2021/05/15 13:51:46;;;;;;;6.25;3.10;;;;;;;;;;5063584;28;20275;-71
2021/05/15 13:54:11;;;;;;;3.80;2.15;;;;;;;;;;5064096;28;20268;-71
2021/05/15 13:56:37;;;;;;;2.65;2.45;;;;;;;;;;5062094;28;20200;-71
2021/05/15 13:59:03;;;;;;;4.82;2.80;;;;;;;;;;5059283;28;20184;-71
2021/05/15 14:01:28;;;;;;;7.45;3.40;;;;;;;;;;5067458;28;20200;-72
2021/05/15 14:03:53;;;;;;;4.68;2.90;;;;;;;;;;5061268;28;20543;-72
2021/05/15 14:06:18;;;;;;;5.18;3.60;;;;;;;;;;5059628;28;20165;-72
2021/05/15 14:08:43;;;;;;;8.65;4.20;;;;;;;;;;5063911;28;20215;-72
2021/05/15 14:11:09;;;;;;;4.95;3.60;;;;;;;;;;5058975;28;20188;-72
2021/05/15 14:13:34;;;;;;;6.13;3.47;;;;;;;;;;5064620;28;20842;-72